createdAt,value
2022-10-18T00:00:06.825Z,102638.97
2022-10-18T00:02:33.653Z,102630.34
2022-10-18T00:05:00.410Z,102637.13
2022-10-18T00:07:26.925Z,102631.91
2022-10-18T00:09:53.652Z,102623.47
2022-10-18T00:12:20.088Z,102625.88
2022-10-18T00:14:49.954Z,102631.78
2022-10-18T00:17:16.989Z,102634.94
2022-10-18T00:19:43.553Z,102632.97
2022-10-18T00:22:10.091Z,102633.16
2022-10-18T00:24:36.589Z,102639.16
2022-10-18T00:27:03.062Z,102630.66
2022-10-18T00:37:47.060Z,102637.44
2022-10-18T00:40:13.611Z,102636.34
2022-10-18T00:42:40.167Z,102638.50
2022-10-18T00:45:27.078Z,102650.66
2022-10-18T00:48:03.540Z,102648.38
2022-10-18T00:50:33.754Z,102650.84
2022-10-18T00:53:05.011Z,102650.53
2022-10-18T00:55:33.187Z,102646.41
2022-10-18T00:58:00.423Z,102638.06
2022-10-18T01:00:27.067Z,102636.47
2022-10-18T01:02:58.834Z,102645.44
2022-10-18T01:05:26.142Z,102654.50
2022-10-18T01:08:20.095Z,102659.72
2022-10-18T01:11:08.293Z,102665.78
2022-10-18T01:13:54.566Z,102674.22
2022-10-18T01:16:44.797Z,102665.91
2022-10-18T01:19:48.963Z,102667.78
2022-10-18T01:22:26.993Z,102665.75
2022-10-18T01:25:23.363Z,102660.84
2022-10-18T01:28:02.496Z,102658.84
2022-10-18T01:30:40.194Z,102664.84
2022-10-18T01:33:22.700Z,102678.09
2022-10-18T01:35:55.287Z,102672.41
2022-10-18T01:38:24.034Z,102672.06
2022-10-18T01:40:52.282Z,102669.78
2022-10-18T01:43:21.871Z,102677.47
2022-10-18T01:45:54.671Z,102674.09
2022-10-18T01:48:21.777Z,102669.63
2022-10-18T01:50:48.409Z,102657.13
2022-10-18T01:53:23.475Z,102661.78
2022-10-18T01:56:05.826Z,102659.00
2022-10-18T01:58:41.851Z,102653.91
2022-10-18T02:01:16.648Z,102658.53
2022-10-18T02:03:48.484Z,102663.59
2022-10-18T02:06:22.149Z,102669.03
2022-10-18T02:09:03.007Z,102661.63
2022-10-18T02:11:32.209Z,102663.81
2022-10-18T02:14:05.931Z,102659.13
2022-10-18T02:16:38.993Z,102652.69
2022-10-18T02:19:12.861Z,102663.59
2022-10-18T02:21:42.254Z,102650.22
2022-10-18T02:27:50.894Z,102651.16
2022-10-18T02:30:18.092Z,102653.78
2022-10-18T02:32:57.277Z,102648.25
2022-10-18T02:35:35.893Z,102655.00
2022-10-18T02:38:03.814Z,102657.47
2022-10-18T02:40:30.584Z,102660.41
2022-10-18T02:42:58.727Z,102654.09
2022-10-18T02:45:26.499Z,102664.38
2022-10-18T02:47:58.955Z,102659.31
2022-10-18T02:50:25.634Z,102654.56
2022-10-18T02:52:52.197Z,102658.25
2022-10-18T02:55:18.859Z,102655.63
2022-10-18T02:57:45.635Z,102659.94
2022-10-18T03:00:12.888Z,102654.56
2022-10-18T03:02:39.633Z,102661.94
2022-10-18T03:05:08.437Z,102659.66
2022-10-18T03:07:35.319Z,102656.38
2022-10-18T03:10:02.242Z,102657.16
2022-10-18T03:12:28.933Z,102657.47
2022-10-18T03:14:55.462Z,102657.94
2022-10-18T03:17:21.977Z,102653.78
2022-10-18T03:19:48.555Z,102649.19
2022-10-18T03:22:15.078Z,102652.88
2022-10-18T03:24:41.604Z,102648.53
2022-10-18T03:27:08.137Z,102658.22
2022-10-18T03:29:34.634Z,102671.66
2022-10-18T03:32:01.266Z,102667.50
2022-10-18T03:34:27.803Z,102665.94
2022-10-18T03:36:55.127Z,102663.34
2022-10-18T03:39:23.094Z,102667.03
2022-10-18T03:41:49.660Z,102664.56
2022-10-18T03:44:16.418Z,102664.69
2022-10-18T03:46:42.941Z,102656.84
2022-10-18T03:49:09.520Z,102658.41
2022-10-18T03:51:36.121Z,102664.41
2022-10-18T03:54:02.785Z,102653.03
2022-10-18T03:56:29.331Z,102653.03
2022-10-18T03:58:57.161Z,102655.16
2022-10-18T04:01:24.231Z,102652.56
2022-10-18T04:03:50.865Z,102656.72
2022-10-18T04:06:17.752Z,102652.09
2022-10-18T04:08:44.498Z,102657.00
2022-10-18T04:11:12.137Z,102661.00
2022-10-18T04:13:38.833Z,102655.34
2022-10-18T04:16:05.542Z,102658.38
2022-10-18T04:18:32.069Z,102646.84
2022-10-18T04:20:58.944Z,102646.72
2022-10-18T04:23:25.543Z,102649.34
2022-10-18T04:25:52.158Z,102647.78
2022-10-18T04:28:18.844Z,102651.19
2022-10-18T04:30:50.447Z,102659.63
2022-10-18T04:33:17.562Z,102658.72
2022-10-18T04:35:44.153Z,102657.47
2022-10-18T04:38:10.834Z,102661.47
2022-10-18T04:40:38.017Z,102656.69
2022-10-18T04:43:04.538Z,102663.81
2022-10-18T04:45:31.186Z,102651.31
2022-10-18T04:47:57.697Z,102652.38
2022-10-18T04:50:24.363Z,102661.78
2022-10-18T04:55:17.381Z,102661.63
2022-10-18T04:57:43.900Z,102660.88
2022-10-18T05:04:01.625Z,102665.63
2022-10-18T05:06:30.394Z,102668.06
2022-10-18T05:08:57.029Z,102673.91
2022-10-18T05:11:23.661Z,102673.00
2022-10-18T05:13:50.996Z,102676.06
2022-10-18T05:16:18.165Z,102671.47
2022-10-18T05:18:44.769Z,102678.22
2022-10-18T05:21:12.573Z,102675.41
2022-10-18T05:23:39.732Z,102686.38
2022-10-18T05:26:08.014Z,102687.44
2022-10-18T05:28:40.004Z,102682.03
2022-10-18T05:31:09.693Z,102689.88
2022-10-18T05:33:36.354Z,102692.81
2022-10-18T05:36:03.166Z,102694.19
2022-10-18T05:39:05.031Z,102692.19
2022-10-18T05:41:32.226Z,102689.59
2022-10-18T05:43:59.088Z,102690.63
2022-10-18T05:46:27.568Z,102697.44
2022-10-18T05:48:54.190Z,102689.38
2022-10-18T05:51:28.401Z,102690.91
2022-10-18T05:53:55.218Z,102694.91
2022-10-18T05:56:22.082Z,102696.75
2022-10-18T05:58:52.454Z,102710.84
2022-10-18T06:01:19.511Z,102715.28
2022-10-18T06:03:48.302Z,102716.50
2022-10-18T06:06:15.468Z,102712.94
2022-10-18T06:08:43.076Z,102715.09
2022-10-18T06:11:15.539Z,102723.78
2022-10-18T06:13:47.443Z,102724.44
2022-10-18T06:16:15.773Z,102729.38
2022-10-18T06:18:43.063Z,102733.97
2022-10-18T06:21:09.789Z,102735.22
2022-10-18T06:23:36.457Z,102724.75
2022-10-18T06:26:08.408Z,102736.75
2022-10-18T06:28:38.587Z,102743.34
2022-10-18T06:31:06.394Z,102751.66
2022-10-18T06:33:34.170Z,102749.63
2022-10-18T06:36:04.430Z,102747.03
2022-10-18T06:38:31.907Z,102745.34
2022-10-18T06:40:59.163Z,102756.66
2022-10-18T06:43:26.305Z,102759.72
2022-10-18T06:45:53.938Z,102761.19
2022-10-18T06:48:21.467Z,102775.41
2022-10-18T06:50:53.223Z,102762.13
2022-10-18T06:53:19.752Z,102775.94
2022-10-18T06:55:46.978Z,102781.31
2022-10-18T06:58:13.590Z,102784.22
2022-10-18T07:00:40.205Z,102794.66
2022-10-18T07:03:07.982Z,102795.72
2022-10-18T07:05:39.653Z,102787.38
2022-10-18T07:08:06.271Z,102799.03
2022-10-18T07:10:33.014Z,102792.31
2022-10-18T07:13:20.101Z,102804.59
2022-10-18T07:15:49.200Z,102816.38
2022-10-18T07:18:16.048Z,102813.09
2022-10-18T07:20:42.754Z,102816.78
2022-10-18T07:23:11.886Z,102816.28
2022-10-18T07:25:38.580Z,102824.41
2022-10-18T07:28:05.457Z,102827.63
2022-10-18T07:30:32.020Z,102828.19
2022-10-18T07:32:58.547Z,102822.97
2022-10-18T07:35:25.225Z,102826.09
2022-10-18T07:37:52.004Z,102824.66
2022-10-18T07:40:18.527Z,102829.94
2022-10-18T07:42:45.301Z,102825.63
2022-10-18T07:45:12.750Z,102833.66
2022-10-18T07:47:40.113Z,102845.59
2022-10-18T07:50:07.603Z,102850.38
2022-10-18T07:52:34.329Z,102851.44
2022-10-18T07:55:00.913Z,102850.06
2022-10-18T07:57:27.479Z,102852.31
2022-10-18T07:59:57.243Z,102851.81
2022-10-18T08:02:24.678Z,102858.34
2022-10-18T08:04:51.197Z,102862.63
2022-10-18T08:07:17.756Z,102866.41
2022-10-18T08:09:44.271Z,102868.22
2022-10-18T08:12:10.901Z,102876.16
2022-10-18T08:14:37.381Z,102873.31
2022-10-18T08:17:03.904Z,102882.13
2022-10-18T08:19:30.541Z,102880.59
2022-10-18T08:21:57.124Z,102888.59
2022-10-18T08:24:23.786Z,102888.78
2022-10-18T08:26:50.843Z,102892.69
2022-10-18T08:29:23.333Z,102885.63
2022-10-18T08:31:51.671Z,102884.25
2022-10-18T08:34:19.869Z,102885.75
2022-10-18T08:36:46.959Z,102893.47
2022-10-18T08:39:13.488Z,102898.56
2022-10-18T08:42:19.667Z,102901.66
2022-10-18T08:44:49.307Z,102904.09
2022-10-18T08:47:23.425Z,102885.56
2022-10-18T08:49:54.961Z,102885.06
2022-10-18T08:52:27.875Z,102888.34
2022-10-18T08:55:21.200Z,102890.84
2022-10-18T08:57:49.709Z,102884.44
2022-10-18T09:00:18.474Z,102876.59
2022-10-18T09:03:00.421Z,102886.72
2022-10-18T09:05:33.378Z,102893.84
2022-10-18T09:08:20.049Z,102891.22
2022-10-18T09:11:03.728Z,102887.91
2022-10-18T09:13:45.806Z,102887.59
2022-10-18T09:16:16.978Z,102878.09
2022-10-18T09:19:06.986Z,102899.66
2022-10-18T09:21:53.656Z,102896.56
2022-10-18T09:24:33.929Z,102895.16
2022-10-18T09:27:22.458Z,102903.75
2022-10-18T09:48:56.919Z,102910.06
2022-10-18T09:51:42.764Z,102913.44
2022-10-18T09:54:26.420Z,102918.19
2022-10-18T09:57:11.193Z,102921.72
2022-10-18T09:59:45.886Z,102925.88
2022-10-18T10:02:15.390Z,102929.84
2022-10-18T10:04:42.272Z,102914.25
2022-10-18T10:07:14.374Z,102916.44
2022-10-18T10:10:06.762Z,102907.22
2022-10-18T10:12:39.430Z,102922.56
2022-10-18T10:15:20.107Z,102918.84
2022-10-18T10:18:19.092Z,102920.44
2022-10-18T10:20:48.472Z,102917.91
2022-10-18T10:24:13.823Z,102923.38
2022-10-18T10:26:52.744Z,102924.59
2022-10-18T10:33:35.569Z,102925.34
2022-10-18T10:36:05.302Z,102918.38
2022-10-18T10:38:32.009Z,102923.19
2022-10-18T10:40:59.288Z,102928.53
2022-10-18T10:43:43.296Z,102938.41
2022-10-18T10:46:13.196Z,102930.59
2022-10-18T10:49:48.657Z,102935.47
2022-10-18T10:52:36.863Z,102927.75
2022-10-18T10:55:33.797Z,102936.31
2022-10-18T10:57:52.799Z,102927.78
2022-10-18T11:00:42.977Z,102938.03
2022-10-18T11:03:34.023Z,102935.28
2022-10-18T11:06:02.124Z,102943.03
2022-10-18T11:08:35.794Z,102935.81
2022-10-18T11:11:18.040Z,102933.84
2022-10-18T11:13:56.959Z,102945.41
2022-10-18T11:16:49.594Z,102936.50
2022-10-18T11:19:51.411Z,102934.34
2022-10-18T11:22:22.172Z,102930.56
2022-10-18T11:24:48.642Z,102935.72
2022-10-18T11:27:36.504Z,102935.88
2022-10-18T11:30:10.440Z,102935.91
2022-10-18T11:32:52.213Z,102931.88
2022-10-18T11:35:42.143Z,102937.56
2022-10-18T11:38:53.575Z,102945.69
2022-10-18T11:41:29.107Z,102948.06
2022-10-18T11:44:03.296Z,102934.03
2022-10-18T11:47:02.357Z,102931.19
2022-10-18T11:49:44.131Z,102938.31
2022-10-18T11:52:24.187Z,102941.31
2022-10-18T11:55:18.687Z,102935.09
2022-10-18T11:57:57.399Z,102936.81
2022-10-18T12:00:39.958Z,102933.03
2022-10-18T12:03:38.663Z,102923.34
2022-10-18T12:06:11.967Z,102914.41
2022-10-18T12:08:49.460Z,102924.28
2022-10-18T12:11:24.750Z,102933.38
2022-10-18T12:13:59.418Z,102924.94
2022-10-18T12:16:49.959Z,102918.09
2022-10-18T12:19:26.698Z,102909.41
2022-10-18T12:21:57.646Z,102908.31
2022-10-18T12:24:30.199Z,102912.31
2022-10-18T12:27:02.108Z,102904.75
2022-10-18T12:29:40.050Z,102895.09
2022-10-18T12:32:11.928Z,102903.78
2022-10-18T12:34:52.898Z,102910.59
2022-10-18T12:37:38.407Z,102908.75
2022-10-18T12:40:36.296Z,102909.84
2022-10-18T12:43:09.062Z,102913.16
2022-10-18T12:45:56.799Z,102907.84
2022-10-18T12:48:30.668Z,102917.66
2022-10-18T12:51:23.615Z,102913.06
2022-10-18T12:54:02.274Z,102915.22
2022-10-18T12:56:28.780Z,102908.13
2022-10-18T12:59:14.117Z,102913.75
2022-10-18T13:02:00.937Z,102903.38
2022-10-18T13:04:27.413Z,102899.38
2022-10-18T13:07:06.080Z,102897.22
2022-10-18T13:10:02.489Z,102889.53
2022-10-18T13:12:28.914Z,102895.66
2022-10-18T13:15:25.000Z,102891.66
2022-10-18T13:18:06.502Z,102886.09
2022-10-18T13:20:47.165Z,102875.22
2022-10-18T13:23:43.158Z,102874.69
2022-10-18T13:26:21.815Z,102873.81
2022-10-18T13:29:26.253Z,102867.84
2022-10-18T13:32:36.845Z,102877.41
2022-10-18T13:35:03.650Z,102875.41
2022-10-18T13:37:30.773Z,102879.94
2022-10-18T13:40:24.113Z,102874.94
2022-10-18T13:42:50.784Z,102889.09
2022-10-18T13:45:32.730Z,102889.84
2022-10-18T13:48:34.861Z,102899.28
2022-10-18T13:51:26.068Z,102886.88
2022-10-18T13:54:04.630Z,102901.75
2022-10-18T13:56:46.465Z,102896.56
2022-10-18T13:59:58.174Z,102903.81
2022-10-18T14:02:51.585Z,102902.88
2022-10-18T14:05:50.172Z,102886.81
2022-10-18T14:08:45.885Z,102887.06
2022-10-18T14:11:28.958Z,102900.63
2022-10-18T14:14:04.207Z,102894.75
2022-10-18T14:16:40.324Z,102891.97
2022-10-18T14:19:28.882Z,102899.41
2022-10-18T14:22:19.070Z,102897.91
2022-10-18T14:24:54.075Z,102901.44
2022-10-18T14:27:23.600Z,102907.53
2022-10-18T14:30:06.465Z,102901.22
2022-10-18T14:32:33.412Z,102904.53
2022-10-18T14:35:30.478Z,102892.41
2022-10-18T14:37:50.029Z,102905.41
2022-10-18T14:40:36.013Z,102889.00
2022-10-18T14:43:22.743Z,102896.22
2022-10-18T14:45:49.171Z,102915.03
2022-10-18T14:48:18.014Z,102904.09
2022-10-18T14:50:47.292Z,102900.75
2022-10-18T14:53:20.996Z,102905.25
2022-10-18T14:56:00.920Z,102907.19
2022-10-18T14:58:28.242Z,102907.66
2022-10-18T15:00:55.066Z,102909.31
2022-10-18T15:03:22.684Z,102911.41
2022-10-18T15:06:02.244Z,102921.53
2022-10-18T15:08:40.503Z,102904.63
2022-10-18T15:11:10.508Z,102901.47
2022-10-18T15:13:56.682Z,102904.13
2022-10-18T15:16:26.733Z,102900.88
2022-10-18T15:19:26.538Z,102911.38
2022-10-18T15:25:05.554Z,102901.28
2022-10-18T15:27:35.849Z,102904.41
2022-10-18T15:30:23.855Z,102891.84
2022-10-18T15:32:56.255Z,102910.03
2022-10-18T15:35:29.076Z,102905.81
2022-10-18T15:38:03.546Z,102907.13
2022-10-18T15:40:37.258Z,102916.78
2022-10-18T15:43:25.886Z,102919.69
2022-10-18T15:45:58.752Z,102909.19
2022-10-18T15:48:30.610Z,102920.25
2022-10-18T15:51:06.932Z,102926.38
2022-10-18T15:53:52.153Z,102922.94
2022-10-18T15:56:36.607Z,102923.47
2022-10-18T15:59:22.128Z,102936.38
2022-10-18T16:01:48.893Z,102939.38
2022-10-18T16:04:20.596Z,102925.44
2022-10-18T16:06:47.093Z,102917.69
2022-10-18T16:09:20.491Z,102926.50
2022-10-18T16:11:54.118Z,102933.31
2022-10-18T16:14:22.986Z,102938.09
2022-10-18T16:16:55.039Z,102932.97
2022-10-18T16:19:23.098Z,102936.22
2022-10-18T16:21:50.240Z,102930.81
2022-10-18T16:24:17.412Z,102938.59
2022-10-18T16:26:44.353Z,102935.34
2022-10-18T16:29:14.634Z,102927.56
2022-10-18T16:31:41.266Z,102939.13
2022-10-18T16:34:10.979Z,102935.50
2022-10-18T16:36:37.837Z,102937.19
2022-10-18T16:39:07.737Z,102933.91
2022-10-18T16:41:34.248Z,102935.47
2022-10-18T16:44:00.764Z,102938.25
2022-10-18T16:46:29.756Z,102945.81
2022-10-18T16:48:56.983Z,102947.06
2022-10-18T16:51:24.076Z,102947.06
2022-10-18T16:53:50.545Z,102955.16
2022-10-18T16:56:20.126Z,102952.63
2022-10-18T16:58:46.797Z,102958.03
2022-10-18T17:01:18.188Z,102962.72
2022-10-18T17:03:45.175Z,102962.38
2022-10-18T17:06:18.072Z,102960.94
2022-10-18T17:08:45.027Z,102971.94
2022-10-18T17:11:13.674Z,102975.53
2022-10-18T17:13:40.370Z,102970.03
2022-10-18T17:16:19.033Z,102976.25
2022-10-18T17:18:45.518Z,102990.72
2022-10-18T17:21:12.086Z,102990.00
2022-10-18T17:23:43.973Z,102986.38
2022-10-18T17:26:34.028Z,102981.78
2022-10-18T17:29:06.277Z,102982.59
2022-10-18T17:31:34.678Z,102982.19
2022-10-18T17:34:02.298Z,102991.69
2022-10-18T17:36:30.418Z,102987.56
2022-10-18T17:38:57.450Z,102992.84
2022-10-18T17:41:23.993Z,103004.47
2022-10-18T17:43:50.700Z,103002.03
2022-10-18T17:46:18.147Z,103000.97
2022-10-18T17:48:45.358Z,103004.84
2022-10-18T17:51:15.464Z,103006.91
2022-10-18T17:53:42.003Z,103001.66
2022-10-18T17:56:10.337Z,103007.09
2022-10-18T17:58:37.046Z,103012.78
2022-10-18T18:01:20.939Z,103015.44
2022-10-18T18:03:51.101Z,103027.78
2022-10-18T18:06:20.851Z,103007.91
2022-10-18T18:08:48.488Z,103020.69
2022-10-18T18:11:17.684Z,103020.88
2022-10-18T18:13:44.373Z,103010.69
2022-10-18T18:16:22.848Z,103015.28
2022-10-18T18:18:51.416Z,103016.84
2022-10-18T18:21:18.643Z,103018.03
2022-10-18T18:23:46.363Z,103016.78
2022-10-18T18:26:12.980Z,103016.00
2022-10-18T18:28:39.784Z,103019.84
2022-10-18T18:31:11.731Z,103016.09
2022-10-18T18:33:38.373Z,103024.09
2022-10-18T18:36:07.033Z,103029.13
2022-10-18T18:38:35.839Z,103027.44
2022-10-18T18:41:11.505Z,103024.31
2022-10-18T18:43:39.882Z,103035.19
2022-10-18T18:46:06.993Z,103029.41
2022-10-18T18:48:35.371Z,103038.81
2022-10-18T18:51:03.439Z,103032.72
2022-10-18T18:53:33.229Z,103036.03
2022-10-18T18:56:04.732Z,103034.16
2022-10-18T18:58:32.302Z,103037.94
2022-10-18T19:00:58.913Z,103032.34
2022-10-18T19:03:25.484Z,103040.59
2022-10-18T19:06:02.290Z,103031.63
2022-10-18T19:08:28.863Z,103035.31
2022-10-18T19:10:57.908Z,103036.00
2022-10-18T19:13:27.532Z,103042.53
2022-10-18T19:16:18.172Z,103041.00
2022-10-18T19:19:10.226Z,103049.91
2022-10-18T19:21:48.554Z,103042.06
2022-10-18T19:24:17.891Z,103038.94
2022-10-18T19:26:47.357Z,103041.84
2022-10-18T19:29:26.278Z,103040.22
2022-10-18T19:31:57.071Z,103039.44
2022-10-18T19:34:25.394Z,103033.75
2022-10-18T19:36:51.886Z,103033.34
2022-10-18T19:39:19.672Z,103039.63
2022-10-18T19:41:47.777Z,103037.59
2022-10-18T19:44:26.782Z,103018.81
2022-10-18T19:46:53.560Z,103042.38
2022-10-18T19:49:24.726Z,103028.25
2022-10-18T19:51:51.374Z,103030.84
2022-10-18T19:54:18.241Z,103030.16
2022-10-18T19:56:45.016Z,103029.88
2022-10-18T19:59:14.807Z,103033.81
2022-10-18T20:01:42.082Z,103023.00
2022-10-18T20:04:11.396Z,103037.06
2022-10-18T20:06:41.464Z,103042.38
2022-10-18T20:09:13.431Z,103033.84
2022-10-18T20:11:42.917Z,103039.13
2022-10-18T20:14:10.875Z,103046.25
2022-10-18T20:16:37.377Z,103043.44
2022-10-18T20:19:07.515Z,103046.63
2022-10-18T20:21:35.987Z,103044.06
2022-10-18T20:24:04.569Z,103041.81
2022-10-18T20:26:31.147Z,103041.88
2022-10-18T20:28:59.609Z,103043.50
2022-10-18T20:31:29.230Z,103045.13
2022-10-18T20:34:00.920Z,103039.69
2022-10-18T20:36:29.932Z,103045.56
2022-10-18T20:38:57.309Z,103041.94
2022-10-18T20:41:23.737Z,103038.91
2022-10-18T20:43:52.255Z,103040.50
2022-10-18T20:46:18.888Z,103026.78
2022-10-18T20:48:45.339Z,103033.81
2022-10-18T20:51:16.977Z,103031.38
2022-10-18T20:53:43.588Z,103028.75
2022-10-18T20:56:13.040Z,103030.94
2022-10-18T20:58:41.210Z,103018.72
2022-10-18T21:01:13.887Z,103032.88
2022-10-18T21:03:42.799Z,103026.88
2022-10-18T21:06:30.744Z,103020.38
2022-10-18T21:08:59.109Z,103024.06
2022-10-18T21:11:27.114Z,103014.97
2022-10-18T21:13:56.258Z,103019.22
2022-10-18T21:16:22.796Z,103017.28
2022-10-18T21:18:49.537Z,103027.19
2022-10-18T21:21:25.361Z,103023.81
2022-10-18T21:23:52.726Z,103020.50
2022-10-18T21:26:24.770Z,103012.50
2022-10-18T21:28:52.783Z,103018.44
2022-10-18T21:31:22.250Z,103015.69
2022-10-18T21:33:54.029Z,103020.72
2022-10-18T21:36:20.655Z,103022.19
2022-10-18T21:38:47.476Z,103023.75
2022-10-18T21:41:16.040Z,103029.81
2022-10-18T21:43:44.994Z,103038.19
2022-10-18T21:46:13.035Z,103031.13
2022-10-18T21:48:43.622Z,103017.63
2022-10-18T21:51:10.795Z,103033.25
2022-10-18T21:53:37.545Z,103020.81
2022-10-18T21:56:09.645Z,103028.59
2022-10-18T21:58:37.197Z,103021.88
2022-10-18T22:01:11.169Z,103026.06
2022-10-18T22:03:38.388Z,103024.28
2022-10-18T22:06:13.767Z,103021.47
2022-10-18T22:08:41.891Z,103021.72
2022-10-18T22:11:08.555Z,103018.84
2022-10-18T22:13:35.036Z,103014.69
2022-10-18T22:16:03.282Z,103025.16
2022-10-18T22:18:30.988Z,103016.81
2022-10-18T22:21:00.445Z,103013.19
2022-10-18T22:23:40.762Z,103016.09
2022-10-18T22:26:20.839Z,103006.78
2022-10-18T22:28:48.384Z,103007.56
2022-10-18T22:31:17.903Z,103015.09
2022-10-18T22:33:45.557Z,103014.34
2022-10-18T22:36:12.885Z,103011.50
2022-10-18T22:38:39.889Z,103013.06
2022-10-18T22:41:11.472Z,103012.06
2022-10-18T22:43:38.537Z,103018.00
2022-10-18T22:46:08.011Z,103016.44
2022-10-18T22:48:35.548Z,103012.31
2022-10-18T22:51:02.713Z,103007.84
2022-10-18T22:53:29.261Z,103007.84
2022-10-18T22:55:55.924Z,103009.69
2022-10-18T22:58:23.044Z,103008.44
2022-10-18T23:00:49.910Z,103006.06
2022-10-18T23:03:18.062Z,103005.84
2022-10-18T23:05:46.561Z,103010.75
2022-10-18T23:08:14.513Z,103008.44
2022-10-18T23:10:42.309Z,103011.25
2022-10-18T23:13:09.044Z,103013.63
2022-10-18T23:15:35.652Z,103013.38
2022-10-18T23:18:02.418Z,103010.03
2022-10-18T23:20:28.867Z,103006.41
2022-10-18T23:22:55.349Z,103009.25
2022-10-18T23:25:21.891Z,103002.50
2022-10-18T23:27:48.531Z,103003.03
2022-10-18T23:30:15.154Z,103006.66
2022-10-18T23:32:41.575Z,103003.56
2022-10-18T23:35:08.413Z,103006.16
2022-10-18T23:37:35.191Z,103013.97
2022-10-18T23:40:01.853Z,103011.34
2022-10-18T23:42:28.361Z,103005.91
2022-10-18T23:44:54.788Z,103006.97
2022-10-18T23:47:21.259Z,102997.63
2022-10-18T23:49:47.719Z,102995.56
2022-10-18T23:52:14.224Z,102997.91
2022-10-18T23:54:40.672Z,103005.16
2022-10-18T23:57:07.133Z,103004.91
2022-10-18T23:59:33.559Z,103000.00
